Forêt de Blanchefort - Lagraulière (19) - C

Date : 16/03/2013
Distance : 2,800 km

Place Nom Licence Catégorie Club Temps min/km CN à J-60 Points Différence Nouveau CN
1 GIRARD Lucille 19689 D18 3705CE 0:27:22 9'46 5022 5756 +734 5150
2 BODY Mathilde 10184 D18 7305RA 0:31:01 11'04 5190 5079 -111 5173
3 BORNARD Julie 9402 D18 7305RA 0:31:48 11'21 4688 4954 +266 4726
4 RIVOLLIER Isaline 22451 D18 4201RA 0:33:07 11'49 4148 4757 +609 4219
5 ROULLEAUX Julie 11559 D18 9105IF 0:33:44 12'02 4897 4670 -227 4911
6 PERRIN Odile 2731 D40 4201RA 0:33:59 12'08 5667 4636 -1031 5667
7 PETER-JAN Lucile 19276 D18 3705CE 0:34:43 12'23 4590 4538 -52 4601
8 BASSET Fiona 23384 D18 6911RA 0:36:00 12'51 4531 4376 -155 4566
9 MARTIN Sylvie 22292 D45 3308AQ 0:36:01 12'51 3937 4374 +437 4010
10 FIGUIERE Valérie 274 D45 7109BO 0:37:54 13'32 4203 4157 -46 4223
11 DOUSSET Corinne 20729 D45 4709AQ 0:38:23 13'42 3827 4104 +277 3850
12 FALGA Christina 1241 D45 6911RA 0:38:53 13'53 3769 4052 +283 3973
13 PETINON Christine 18601 D40 2301LI 0:40:53 14'36 4517 3853 -664 4473
14 TREMOULET Carole 13824 D40 4601MP 0:41:22 14'46 3989 3808 -181 3973
15 PINZELLI Tamara 23551 D18 1905LI 0:42:03 15'01 3436 3746 +310 3516
16 LEMERCIER Victoire 11454 D18 5407LO 0:42:42 15'15 3795 3689 -106 3768
17 BESTEL Sandra 10758 D18 9105IF 0:44:33 15'54 3916 3536 -380 3916
18 POUCHAT Valerie 12687 D45 3308AQ 0:44:40 15'57 3254 3527 +273 3387
19 CAGNARD Nathalie 13850 D40 8311AZ 0:45:42 16'19 3674 3447 -227 3555
20 MORVAN Clotilde 15891 D45 2906BR 0:45:47 16'21 3884 3441 -443 3849
21 ERBLAND Christine 23153 D40 9105IF 0:47:10 16'50 4399 3340 -1059 4323
22 VOISIN Stephanie 1202 D40 4902PL 0:47:55 17'06 3288 0
23 FOL-RIBET Hélène 14939 D45 3105MP 0:49:10 17'33 4109 3204 -905 4109
24 MONESTES Nathalie 24036 D45 4709AQ 0:50:54 18'10 2567 3095 +528 2762
25 BESTEL Florence 17309 D40 9105IF 0:51:08 18'15 4038 3081 -957 4050
26 LEVREUX Nathalie 14946 D45 7807IF 0:51:12 18'17 3780 3077 -703 3759
27 RAUTURIER Nathalie 3200 D45 7807IF 0:51:52 18'31 3803 3037 -766 3803
28 FALGA Beatrice 12403 D18 6911RA 0:55:28 19'48 3678 2840 -838 3678
29 PECOURT Muriel 10156 D40 2904BR 0:56:13 20'04 2896 2802 -94 2891
30 ANDRE Isabelle 25211 D40 4010AQ 0:57:11 20'25 3698 2755 -943 3771
31 PERROGON Dominique 21490 D45 1705PC 0:58:35 20'55 2631 2689 +58 2690
32 MARTY Christel 21142 D40 4708AQ 0:58:51 21'01 3144 2677 -467 3400
33 SERRAND Hélène 14863 D45 3105MP 0:59:04 21'05 4606 2667 -1939 4575
34 BROUTE Sylvine 24360 D45 3319AQ 0:59:39 21'18 2243 2641 +398 2370
35 VERNOTTE Justine 23633 D18 1905LI 1:00:04 21'27 3462 2623 -839 3302
36 BEAUVISAGE Fabienne 13740 D45 7807IF 1:01:36 22'00 2948 2557 -391 2948
37 ANGLADE Françoise 22255 D45 5604BR 1:03:13 22'34 3505 2492 -1013 3397
38 TAUZIN Laurence 18370 D40 8607PC 1:07:01 23'56 2497 2351 -146 2502
39 GOURVIL Elisabeth 18473 D45 3705CE 1:29:17 31'53 1299 1764 +465 1476
40 BRISTOT Nathalie 25571 D35 3308AQ 1:41:22 36'12 2015 1554 -461 2015
LAPLACE Christele 24798 D45 4902PL pm None 2468 0 2468